Corsicana, TX (75110)

2:11 AM CDT on September 20, 2014 (GMT -0500)
Carol Ave | Change Station
CLOSE
Current Station
Personal Weather Station
Location: Corsicana, TX
Elevation: 460 ft
Nearby Weather Stations

Elev 460 ft 32.12 °N, 96.49 °W | Updated 5 minutes ago

Scattered Clouds
Scattered Clouds
75.3 °F
Feels Like 75 °F
N
1.0
Wind Variable Wind from SE
Gusts 2.0 mph

Today
High -- | Low -- °F
--% Chance of Precip.
Yesterday
High -- | Low -- °F
Precip. -- in
7:12 AM 7:24 PM
Waning Crescent, 14% visible
Pressure 29.95 in
Visibility 10.0 miles
Clouds Scattered Clouds 7000 ft
Heat Index 75 °F
Dew Point 72 °F
Humidity 90%
Rainfall 0.00 in
Snow Depth Not available.
UV 0 out of 12
Pollen 10.00 out of 12
Air Quality Not available.
Flu Activity Not available.
METAR KCRS 200653Z AUTO 13004KT 10SM SCT070 24/21 A2997 RMK AO2 SLP142 T02390211

More Conditions Fewer Conditions

Pressure 29.95 in
Visibility 10.0 miles
Clouds Scattered Clouds 7000 ft
Heat Index 75 °F
Dew Point 72 °F
Humidity 90%
Rainfall 0.00 in
Snow Depth Not available.
UV 0 out of 12
Pollen 10.00 out of 12
Air Quality Not available.
Flu Activity Not available.
METAR KCRS 200653Z AUTO 13004KT 10SM SCT070 24/21 A2997 RMK AO2 SLP142 T02390211

More Conditions Fewer Conditions

10-Day Weather Forecast

Almanac

Astronomy

Sep. 20, 2014 Rise Set
Actual Time 7:12 AM CDT 7:24 PM CDT
Civil Twilight 6:48 AM CDT 7:49 PM CDT
Nautical Twilight 6:19 AM CDT 8:17 PM CDT
Astronomical Twilight 5:50 AM CDT 8:46 PM CDT
Moon 4:02 AM CDT 5:21 PM CDT
Length of Visible Light 13h 01m
Length of Day
12h 12m
Tomorrow will be 1m 57s shorter.
Waning Crescent, 14% of the Moon is Illuminated
Today
Waning Crescent
Sep 24
New
Oct 1
First Quarter
Oct 8
Full
Oct 15
Last Quarter

Today's Extremes

State Highs State Lows

Community

WunderPhotos

Upload Photos

1,754,792 photos uploaded!

WunderBlogs® & News

Nearby

Snow Depth

Station Depth Elevation
No new snow has been reported.

Earthquake Activity

City Distance Mag. Time & Date
No recent earthquake activity has been reported nearby.
Minimum magnitude displayed is 2.5.

Coastal Water Temperatures

Place Temperature
No Stations Reporting

Nearby Weather Stations